Follansbee, West Virginia
Current Conditions -  °F | °C
As of 2:20 AM on Wednesday 22 Oct 2014 (Local Time) from KHLG Reporting Station
Overcast Overcast  
Wind Chill: 41°   Ceiling: 600
Heat Index: 47°   Visibility: 10mi
Dew Point: 45°   Wind: 14mph
Humidity: 93%   Direction: 340°NNW
Pressure: 30.04"   Gusts: NA
Location:  40.33°N, 80.6°W
Report Text: KHLG 220620Z AUTO 34012KT 10SM OVC006 08/07 A3004 RMK AO2 CIG 004V008 T00830072
Loading
Personal Weather Stations






























Interactive Weather Map
Tropical Storm Tracking
New forecast layout! Learn more

10-Day Weather Forecast

Advertisements
Track Severe Weather on mobile